Time;durP1;ratioP1;P1;durP2;ratioP2;P2;SDS_P1;SDS_P2;PMS_P1;PMS_P2;Temp;Humidity;BMP_temperature;BMP_pressure;BME280_temperature;BME280_humidity;BME280_pressure;Samples;Min_cycle;Max_cycle;Signal;HPM_P1;HPM_P2
2023/05/20 00:00:19;;;;;;;;;;;22.30;50.60;;;;;;1555600;74;743;-57
2023/05/20 00:02:21;;;;;;;;;;;22.30;50.50;;;;;;1560025;75;707;-57
2023/05/20 00:04:22;;;;;;;;;;;22.30;50.50;;;;;;1557345;74;670;-55
2023/05/20 00:06:24;;;;;;;;;;;22.30;50.50;;;;;;1554371;74;1936;-57
2023/05/20 00:08:26;;;;;;;;;;;22.30;50.60;;;;;;1556525;75;1326;-56
2023/05/20 00:10:28;;;;;;;;;;;22.20;50.50;;;;;;1561187;75;682;-58
2023/05/20 00:12:30;;;;;;;;;;;22.30;50.60;;;;;;1553863;75;714;-56
2023/05/20 00:14:32;;;;;;;;;;;22.20;50.50;;;;;;1559415;74;716;-58
2023/05/20 00:16:34;;;;;;;;;;;22.20;50.50;;;;;;1551392;74;1139;-57
2023/05/20 00:18:36;;;;;;;;;;;22.20;50.60;;;;;;1556230;75;715;-57
2023/05/20 00:20:37;;;;;;;;;;;22.20;50.60;;;;;;1557135;75;791;-55
2023/05/20 00:22:39;;;;;;;;;;;22.30;50.70;;;;;;1552863;74;1469;-56
2023/05/20 00:24:41;;;;;;;;;;;22.20;50.60;;;;;;1561082;74;1932;-58
2023/05/20 00:26:43;;;;;;;;;;;22.20;50.70;;;;;;1552184;74;1209;-56
2023/05/20 00:28:45;;;;;;;;;;;22.20;50.60;;;;;;1562008;75;699;-57
2023/05/20 00:30:47;;;;;;;;;;;22.20;50.70;;;;;;1553778;75;774;-57
2023/05/20 00:32:49;;;;;;;;;;;22.20;50.70;;;;;;1552119;75;686;-56
2023/05/20 00:34:58;;;;;;;;;;;22.20;50.70;;;;;;1557773;74;610;-55
2023/05/20 00:37:00;;;;;;;;;;;22.30;50.80;;;;;;1552464;74;1461;-59
2023/05/20 00:39:02;;;;;;;;;;;22.20;50.70;;;;;;1553018;74;1104;-57
2023/05/20 00:41:04;;;;;;;;;;;22.20;50.70;;;;;;1549207;75;619;-57
2023/05/20 00:43:06;;;;;;;;;;;22.20;50.70;;;;;;1550274;75;683;-57
2023/05/20 00:45:08;;;;;;;;;;;22.20;50.70;;;;;;1547751;75;1900;-57
2023/05/20 00:47:10;;;;;;;;;;;22.20;50.70;;;;;;1554155;76;1188;-57
2023/05/20 00:49:12;;;;;;;;;;;22.20;50.70;;;;;;1552115;75;710;-55
2023/05/20 00:51:14;;;;;;;;;;;22.20;50.80;;;;;;1547421;75;1805;-55
2023/05/20 00:53:17;;;;;;;;;;;22.20;50.80;;;;;;1545642;75;592;-55
2023/05/20 00:55:19;;;;;;;;;;;22.20;50.70;;;;;;1538031;75;695;-56
2023/05/20 00:57:21;;;;;;;;;;;22.20;50.80;;;;;;1556019;76;1124;-58
2023/05/20 00:59:23;;;;;;;;;;;22.20;50.80;;;;;;1544969;75;713;-58
2023/05/20 01:01:25;;;;;;;;;;;22.20;50.70;;;;;;1541083;75;643;-56
2023/05/20 01:03:27;;;;;;;;;;;22.20;50.80;;;;;;1552995;76;1571;-55
2023/05/20 01:05:28;;;;;;;;;;;22.20;50.80;;;;;;1549690;75;1925;-58
2023/05/20 01:07:30;;;;;;;;;;;22.20;50.80;;;;;;1545483;75;1131;-56
2023/05/20 01:09:32;;;;;;;;;;;22.20;50.90;;;;;;1552075;75;750;-56
2023/05/20 01:11:35;;;;;;;;;;;22.10;50.80;;;;;;1541855;76;747;-58
2023/05/20 01:13:38;;;;;;;;;;;22.10;50.80;;;;;;1547610;75;794;-57
2023/05/20 01:15:40;;;;;;;;;;;22.10;50.80;;;;;;1537958;75;1859;-56
2023/05/20 01:17:47;;;;;;;;;;;22.20;50.80;;;;;;1546229;75;1316;-55
2023/05/20 01:19:48;;;;;;;;;;;22.20;50.80;;;;;;1544630;76;1665;-58
2023/05/20 01:21:50;;;;;;;;;;;22.10;50.90;;;;;;1552223;75;698;-57
2023/05/20 01:23:52;;;;;;;;;;;22.10;50.90;;;;;;1553053;75;656;-55
2023/05/20 01:25:54;;;;;;;;;;;22.20;50.80;;;;;;1547083;76;1923;-58
2023/05/20 01:27:59;;;;;;;;;;;22.10;50.90;;;;;;1537748;75;1119;-56
2023/05/20 01:30:01;;;;;;;;;;;22.10;50.80;;;;;;1540012;75;600;-55
2023/05/20 01:32:04;;;;;;;;;;;22.10;50.90;;;;;;1545282;75;1451;-55
2023/05/20 01:34:06;;;;;;;;;;;22.10;50.90;;;;;;1556683;75;1685;-55
2023/05/20 01:36:08;;;;;;;;;;;22.10;50.80;;;;;;1543727;75;778;-57
2023/05/20 01:38:10;;;;;;;;;;;22.10;50.90;;;;;;1558879;75;691;-57
2023/05/20 01:40:13;;;;;;;;;;;22.10;50.90;;;;;;1556480;75;1417;-57
2023/05/20 01:42:15;;;;;;;;;;;22.10;50.90;;;;;;1552274;75;668;-57
2023/05/20 01:44:17;;;;;;;;;;;22.10;50.90;;;;;;1557554;75;781;-55
2023/05/20 01:46:19;;;;;;;;;;;22.10;50.90;;;;;;1557145;74;1931;-57
2023/05/20 01:48:21;;;;;;;;;;;22.10;50.90;;;;;;1554566;75;718;-55
2023/05/20 01:50:23;;;;;;;;;;;22.10;50.90;;;;;;1560871;74;720;-56
2023/05/20 01:52:25;;;;;;;;;;;22.10;51.00;;;;;;1563240;75;722;-55
2023/05/20 01:54:27;;;;;;;;;;;22.10;51.00;;;;;;1560191;75;719;-56
2023/05/20 01:56:28;;;;;;;;;;;22.10;51.00;;;;;;1551167;75;1134;-57
2023/05/20 01:58:30;;;;;;;;;;;22.10;51.00;;;;;;1552944;74;659;-57
2023/05/20 02:00:33;;;;;;;;;;;22.10;51.00;;;;;;1554680;75;1506;-56
2023/05/20 02:02:35;;;;;;;;;;;22.10;51.00;;;;;;1562151;74;738;-56
2023/05/20 02:04:37;;;;;;;;;;;22.10;51.00;;;;;;1562125;74;736;-57
2023/05/20 02:06:39;;;;;;;;;;;22.10;51.00;;;;;;1562151;75;1938;-57
2023/05/20 02:08:41;;;;;;;;;;;22.10;51.00;;;;;;1551557;75;726;-58
2023/05/20 02:10:43;;;;;;;;;;;22.10;51.00;;;;;;1558862;74;666;-56
2023/05/20 02:12:46;;;;;;;;;;;22.10;51.00;;;;;;1546704;75;662;-59
2023/05/20 02:14:49;;;;;;;;;;;22.10;51.00;;;;;;1561104;75;1465;-54
2023/05/20 02:16:51;;;;;;;;;;;22.10;51.00;;;;;;1560556;75;1185;-55
2023/05/20 02:18:52;;;;;;;;;;;22.10;51.00;;;;;;1561988;74;682;-56
2023/05/20 02:20:54;;;;;;;;;;;22.10;51.00;;;;;;1564463;75;646;-55
2023/05/20 02:22:56;;;;;;;;;;;22.10;51.00;;;;;;1547834;75;618;-56
2023/05/20 02:24:58;;;;;;;;;;;22.10;51.00;;;;;;1555847;75;719;-55
2023/05/20 02:27:02;;;;;;;;;;;22.10;51.00;;;;;;1553818;75;1938;-57
2023/05/20 02:29:03;;;;;;;;;;;22.10;51.00;;;;;;1556532;75;1478;-55
2023/05/20 02:31:05;;;;;;;;;;;22.10;51.00;;;;;;1558321;75;713;-55
2023/05/20 02:33:08;;;;;;;;;;;22.00;51.00;;;;;;1554354;75;806;-56
2023/05/20 02:35:10;;;;;;;;;;;22.10;51.00;;;;;;1552828;75;734;-56
2023/05/20 02:37:12;;;;;;;;;;;22.10;51.00;;;;;;1549207;74;1151;-55
2023/05/20 02:39:14;;;;;;;;;;;22.10;51.00;;;;;;1560538;74;670;-56
2023/05/20 02:41:16;;;;;;;;;;;22.10;51.00;;;;;;1540399;75;1169;-56
2023/05/20 02:43:18;;;;;;;;;;;22.00;50.90;;;;;;1536798;75;1431;-58
2023/05/20 02:45:20;;;;;;;;;;;22.10;51.00;;;;;;1539218;75;788;-58
2023/05/20 02:47:21;;;;;;;;;;;22.10;51.00;;;;;;1539433;75;1936;-57
2023/05/20 02:49:23;;;;;;;;;;;22.10;51.00;;;;;;1545099;75;672;-56
2023/05/20 02:51:25;;;;;;;;;;;22.10;51.00;;;;;;1544356;75;572;-57
2023/05/20 02:53:27;;;;;;;;;;;22.10;51.00;;;;;;1542023;75;644;-55
2023/05/20 02:55:29;;;;;;;;;;;22.10;51.00;;;;;;1546088;75;614;-58
2023/05/20 02:57:31;;;;;;;;;;;22.10;51.00;;;;;;1552119;75;1431;-57
2023/05/20 02:59:33;;;;;;;;;;;22.10;51.00;;;;;;1540232;75;779;-56
2023/05/20 03:01:35;;;;;;;;;;;22.00;50.90;;;;;;1552644;75;716;-57
2023/05/20 03:03:39;;;;;;;;;;;22.10;51.00;;;;;;1546018;75;715;-59
2023/05/20 03:05:44;;;;;;;;;;;22.00;50.90;;;;;;1542804;75;1905;-56
2023/05/20 03:07:45;;;;;;;;;;;22.10;51.00;;;;;;1538073;75;1538;-55
2023/05/20 03:09:47;;;;;;;;;;;22.10;51.00;;;;;;1544059;75;677;-55
2023/05/20 03:11:49;;;;;;;;;;;22.00;50.90;;;;;;1554942;75;1556;-56
2023/05/20 03:13:51;;;;;;;;;;;22.10;51.00;;;;;;1542604;75;699;-57
2023/05/20 03:15:52;;;;;;;;;;;22.10;51.00;;;;;;1547371;75;675;-57
2023/05/20 03:17:54;;;;;;;;;;;22.10;51.00;;;;;;1544740;75;1157;-57
2023/05/20 03:19:56;;;;;;;;;;;22.10;51.00;;;;;;1533278;75;781;-56
2023/05/20 03:21:59;;;;;;;;;;;22.10;51.00;;;;;;1530606;75;692;-57
2023/05/20 03:24:01;;;;;;;;;;;22.10;51.00;;;;;;1535917;75;1457;-56
2023/05/20 03:26:03;;;;;;;;;;;22.10;51.00;;;;;;1538607;75;1945;-58
2023/05/20 03:28:05;;;;;;;;;;;22.10;51.00;;;;;;1547829;75;1086;-58
2023/05/20 03:30:08;;;;;;;;;;;22.10;51.00;;;;;;1542766;75;672;-59
2023/05/20 03:32:10;;;;;;;;;;;22.10;51.00;;;;;;1537676;75;727;-57
2023/05/20 03:34:12;;;;;;;;;;;22.10;51.00;;;;;;1543704;75;703;-56
2023/05/20 03:36:14;;;;;;;;;;;22.00;51.00;;;;;;1542038;75;1145;-57
2023/05/20 03:38:15;;;;;;;;;;;22.10;51.00;;;;;;1535267;75;1508;-57
2023/05/20 03:40:17;;;;;;;;;;;22.10;51.00;;;;;;1536728;75;632;-55
2023/05/20 03:42:19;;;;;;;;;;;22.00;50.90;;;;;;1552770;75;1120;-56
2023/05/20 03:44:21;;;;;;;;;;;22.00;51.00;;;;;;1539688;75;702;-55
2023/05/20 03:46:23;;;;;;;;;;;22.10;51.10;;;;;;1543579;75;1936;-59
2023/05/20 03:48:25;;;;;;;;;;;22.10;51.10;;;;;;1543529;75;713;-57
2023/05/20 03:50:27;;;;;;;;;;;22.10;51.10;;;;;;1543654;75;691;-56
2023/05/20 03:52:29;;;;;;;;;;;22.10;51.10;;;;;;1545430;75;1466;-56
2023/05/20 03:54:30;;;;;;;;;;;22.10;51.10;;;;;;1542857;75;744;-56
2023/05/20 03:56:32;;;;;;;;;;;22.00;51.00;;;;;;1544434;75;1149;-55
2023/05/20 03:58:37;;;;;;;;;;;22.00;51.00;;;;;;1550736;75;683;-57
2023/05/20 04:00:38;;;;;;;;;;;22.00;51.00;;;;;;1545390;75;1427;-56
2023/05/20 04:02:40;;;;;;;;;;;22.00;51.00;;;;;;1545820;75;730;-56
2023/05/20 04:04:42;;;;;;;;;;;22.10;51.10;;;;;;1545715;75;676;-57
2023/05/20 04:06:44;;;;;;;;;;;22.10;51.10;;;;;;1551985;75;1931;-57
2023/05/20 04:08:46;;;;;;;;;;;22.00;51.00;;;;;;1537699;75;669;-56
2023/05/20 04:10:48;;;;;;;;;;;22.00;51.10;;;;;;1543248;75;688;-56
2023/05/20 04:12:50;;;;;;;;;;;22.00;51.00;;;;;;1540890;75;664;-55
2023/05/20 04:14:54;;;;;;;;;;;22.10;51.10;;;;;;1531098;75;699;-55
2023/05/20 04:16:55;;;;;;;;;;;22.00;51.00;;;;;;1538693;75;1639;-57
2023/05/20 04:18:58;;;;;;;;;;;22.10;51.10;;;;;;1531193;75;715;-55
2023/05/20 04:21:00;;;;;;;;;;;22.10;51.10;;;;;;1529428;75;1492;-57
2023/05/20 04:23:02;;;;;;;;;;;22.10;51.10;;;;;;1541647;75;676;-57
2023/05/20 04:25:05;;;;;;;;;;;22.10;51.10;;;;;;1539425;75;675;-57
2023/05/20 04:27:07;;;;;;;;;;;22.00;51.00;;;;;;1535523;75;1912;-55
2023/05/20 04:29:10;;;;;;;;;;;22.10;51.00;;;;;;1545365;75;736;-56
2023/05/20 04:31:12;;;;;;;;;;;22.10;51.00;;;;;;1542796;75;789;-57
2023/05/20 04:33:15;;;;;;;;;;;22.10;51.10;;;;;;1557097;75;706;-57
2023/05/20 04:35:17;;;;;;;;;;;22.00;51.00;;;;;;1542042;75;1510;-57
2023/05/20 04:37:19;;;;;;;;;;;22.10;51.10;;;;;;1543201;75;1145;-57
2023/05/20 04:39:21;;;;;;;;;;;22.00;51.00;;;;;;1541391;75;670;-56
2023/05/20 04:41:23;;;;;;;;;;;22.00;51.00;;;;;;1545312;75;1104;-57
2023/05/20 04:43:28;;;;;;;;;;;22.10;51.10;;;;;;1548281;75;726;-55
2023/05/20 04:45:29;;;;;;;;;;;22.00;50.90;;;;;;1559792;75;1605;-58
2023/05/20 04:47:37;;;;;;;;;;;22.10;51.00;;;;;;1547891;74;1949;-57
2023/05/20 04:49:35;;;;;;;;;;;22.00;50.90;;;;;;1550978;75;1579;-55
2023/05/20 04:51:37;;;;;;;;;;;22.00;51.00;;;;;;1556183;75;676;-54
2023/05/20 04:53:39;;;;;;;;;;;22.10;51.00;;;;;;1557060;74;801;-57
2023/05/20 04:55:42;;;;;;;;;;;22.00;50.90;;;;;;1556997;75;771;-55
2023/05/20 04:57:44;;;;;;;;;;;22.10;51.00;;;;;;1557481;74;1155;-55
2023/05/20 04:59:46;;;;;;;;;;;22.10;51.00;;;;;;1547871;74;671;-55
2023/05/20 05:01:48;;;;;;;;;;;22.10;51.00;;;;;;1555604;75;684;-57
2023/05/20 05:03:50;;;;;;;;;;;22.00;50.90;;;;;;1551310;74;1459;-55
2023/05/20 05:05:53;;;;;;;;;;;22.10;51.00;;;;;;1565792;75;630;-55
2023/05/20 05:07:55;;;;;;;;;;;22.00;50.90;;;;;;1551261;75;1951;-57
2023/05/20 05:09:57;;;;;;;;;;;22.10;51.00;;;;;;1563639;74;688;-57
2023/05/20 05:12:00;;;;;;;;;;;22.10;51.00;;;;;;1556519;74;711;-56
2023/05/20 05:14:02;;;;;;;;;;;22.10;51.00;;;;;;1560258;75;653;-57
2023/05/20 05:16:04;;;;;;;;;;;22.10;51.00;;;;;;1551791;75;679;-56
2023/05/20 05:18:06;;;;;;;;;;;22.10;51.00;;;;;;1563775;75;1497;-56
2023/05/20 05:20:08;;;;;;;;;;;22.10;51.00;;;;;;1557170;75;694;-55
2023/05/20 05:22:10;;;;;;;;;;;22.10;51.00;;;;;;1561005;75;716;-57
2023/05/20 05:24:12;;;;;;;;;;;22.10;51.00;;;;;;1551697;74;692;-57
2023/05/20 05:26:14;;;;;;;;;;;22.10;51.00;;;;;;1549018;75;1153;-57
2023/05/20 05:28:16;;;;;;;;;;;22.10;51.00;;;;;;1558559;75;1939;-56
2023/05/20 05:30:18;;;;;;;;;;;22.10;51.00;;;;;;1549597;75;634;-55
2023/05/20 05:32:20;;;;;;;;;;;22.10;51.00;;;;;;1559306;74;1445;-56
2023/05/20 05:34:22;;;;;;;;;;;22.10;51.00;;;;;;1562148;75;734;-55
2023/05/20 05:36:24;;;;;;;;;;;22.10;51.00;;;;;;1555700;74;1129;-58
2023/05/20 05:38:26;;;;;;;;;;;22.10;51.00;;;;;;1555619;75;662;-57
2023/05/20 05:40:28;;;;;;;;;;;22.10;51.00;;;;;;1554368;74;648;-56
2023/05/20 05:42:30;;;;;;;;;;;22.10;51.00;;;;;;1549071;75;1313;-57
2023/05/20 05:44:32;;;;;;;;;;;22.10;51.00;;;;;;1550208;75;742;-57
2023/05/20 05:46:34;;;;;;;;;;;22.10;51.00;;;;;;1556870;75;1573;-59
2023/05/20 05:48:36;;;;;;;;;;;22.10;51.00;;;;;;1561490;75;692;-55
2023/05/20 05:50:38;;;;;;;;;;;22.10;51.00;;;;;;1560610;75;585;-59
2023/05/20 05:52:40;;;;;;;;;;;22.10;51.00;;;;;;1546884;75;757;-56
2023/05/20 05:54:41;;;;;;;;;;;22.10;51.00;;;;;;1549509;75;744;-57
2023/05/20 05:56:43;;;;;;;;;;;22.10;51.00;;;;;;1552338;75;1142;-59
2023/05/20 05:58:47;;;;;;;;;;;22.10;50.90;;;;;;1551046;75;1481;-58
2023/05/20 06:00:50;;;;;;;;;;;22.10;50.90;;;;;;1547965;75;674;-58
2023/05/20 06:02:52;;;;;;;;;;;22.10;50.90;;;;;;1549876;75;753;-59
2023/05/20 06:04:54;;;;;;;;;;;22.10;51.00;;;;;;1553926;75;750;-58
2023/05/20 06:06:56;;;;;;;;;;;22.10;51.00;;;;;;1550358;75;1929;-56
2023/05/20 06:08:58;;;;;;;;;;;22.10;51.00;;;;;;1556691;75;647;-57
2023/05/20 06:11:00;;;;;;;;;;;22.10;51.00;;;;;;1550795;75;680;-56
2023/05/20 06:13:01;;;;;;;;;;;22.10;51.00;;;;;;1555370;76;1476;-57
2023/05/20 06:15:03;;;;;;;;;;;22.10;51.00;;;;;;1561063;75;727;-55
2023/05/20 06:17:05;;;;;;;;;;;22.10;51.00;;;;;;1555586;76;1193;-59
2023/05/20 06:19:08;;;;;;;;;;;22.10;51.00;;;;;;1544800;75;720;-57
2023/05/20 06:21:09;;;;;;;;;;;22.10;51.00;;;;;;1543802;75;677;-57
2023/05/20 06:23:11;;;;;;;;;;;22.10;51.00;;;;;;1551554;75;758;-57
2023/05/20 06:25:13;;;;;;;;;;;22.10;51.00;;;;;;1538400;75;681;-60
2023/05/20 06:27:15;;;;;;;;;;;22.10;50.90;;;;;;1551766;75;1949;-58
2023/05/20 06:29:17;;;;;;;;;;;22.10;50.90;;;;;;1539110;75;669;-56
2023/05/20 06:31:19;;;;;;;;;;;22.10;51.00;;;;;;1552842;75;721;-57
2023/05/20 06:33:24;;;;;;;;;;;22.10;51.00;;;;;;1547511;75;766;-56
2023/05/20 06:35:26;;;;;;;;;;;22.10;51.00;;;;;;1550535;75;1455;-59
2023/05/20 06:37:28;;;;;;;;;;;22.10;50.90;;;;;;1546662;75;1138;-56
2023/05/20 06:39:30;;;;;;;;;;;22.10;50.90;;;;;;1550818;75;685;-55
2023/05/20 06:41:32;;;;;;;;;;;22.10;51.00;;;;;;1550255;75;1473;-55
2023/05/20 06:43:33;;;;;;;;;;;22.10;51.00;;;;;;1542886;75;1116;-56
2023/05/20 06:45:35;;;;;;;;;;;22.10;51.00;;;;;;1551866;75;684;-59
2023/05/20 06:47:37;;;;;;;;;;;22.10;51.00;;;;;;1557004;76;1950;-58
2023/05/20 06:49:39;;;;;;;;;;;22.10;50.90;;;;;;1553901;75;693;-56
2023/05/20 06:51:42;;;;;;;;;;;22.10;50.90;;;;;;1548078;76;632;-57
2023/05/20 06:53:45;;;;;;;;;;;22.10;50.90;;;;;;1553499;75;610;-55
2023/05/20 06:55:46;;;;;;;;;;;22.10;50.90;;;;;;1555558;75;1416;-59
2023/05/20 06:57:48;;;;;;;;;;;22.10;50.90;;;;;;1552637;75;1091;-57
2023/05/20 06:59:50;;;;;;;;;;;22.10;50.90;;;;;;1549347;75;697;-57
2023/05/20 07:01:52;;;;;;;;;;;22.10;50.90;;;;;;1544986;75;688;-56
2023/05/20 07:03:54;;;;;;;;;;;22.10;50.90;;;;;;1543286;75;651;-57
2023/05/20 07:05:56;;;;;;;;;;;22.10;50.90;;;;;;1544682;75;679;-54
2023/05/20 07:07:58;;;;;;;;;;;22.10;50.90;;;;;;1548058;75;1971;-55
2023/05/20 07:10:00;;;;;;;;;;;22.10;50.90;;;;;;1542978;75;1401;-56
2023/05/20 07:12:02;;;;;;;;;;;22.10;50.90;;;;;;1550387;75;730;-56
2023/05/20 07:14:04;;;;;;;;;;;22.10;50.90;;;;;;1548078;75;738;-56
2023/05/20 07:16:06;;;;;;;;;;;22.10;50.90;;;;;;1547360;75;679;-56
2023/05/20 07:18:07;;;;;;;;;;;22.10;50.90;;;;;;1553675;75;1162;-55
2023/05/20 07:20:09;;;;;;;;;;;22.10;50.90;;;;;;1546817;75;675;-55
2023/05/20 07:22:11;;;;;;;;;;;22.10;50.90;;;;;;1546649;75;918;-55
2023/05/20 07:24:13;;;;;;;;;;;22.10;50.90;;;;;;1545546;75;1471;-55
2023/05/20 07:26:15;;;;;;;;;;;22.20;50.90;;;;;;1546235;75;1157;-55
2023/05/20 07:28:17;;;;;;;;;;;22.20;50.80;;;;;;1545719;75;1910;-56
2023/05/20 07:30:19;;;;;;;;;;;22.20;50.70;;;;;;1547475;75;736;-57
2023/05/20 07:32:21;;;;;;;;;;;22.20;50.70;;;;;;1549507;75;639;-56
2023/05/20 07:34:23;;;;;;;;;;;22.20;50.70;;;;;;1545646;75;720;-56
2023/05/20 07:36:26;;;;;;;;;;;22.20;50.70;;;;;;1549686;75;1143;-57
2023/05/20 07:38:28;;;;;;;;;;;22.20;50.70;;;;;;1555362;75;1468;-56
2023/05/20 07:40:30;;;;;;;;;;;22.20;50.70;;;;;;1555724;76;730;-54
2023/05/20 07:42:32;;;;;;;;;;;22.20;50.60;;;;;;1551398;75;699;-57
2023/05/20 07:44:33;;;;;;;;;;;22.20;50.70;;;;;;1548020;75;1095;-56
2023/05/20 07:46:36;;;;;;;;;;;22.30;50.70;;;;;;1556240;75;1184;-57
2023/05/20 07:48:38;;;;;;;;;;;22.20;50.60;;;;;;1542211;75;1916;-56
2023/05/20 07:50:40;;;;;;;;;;;22.20;50.60;;;;;;1551018;75;762;-56
2023/05/20 07:52:42;;;;;;;;;;;22.20;50.50;;;;;;1544750;75;1464;-56
2023/05/20 07:54:44;;;;;;;;;;;22.20;50.50;;;;;;1554039;76;683;-54
2023/05/20 07:56:46;;;;;;;;;;;22.30;50.70;;;;;;1543295;75;1139;-56
2023/05/20 07:58:55;;;;;;;;;;;22.30;50.60;;;;;;1545995;75;688;-55
2023/05/20 08:00:57;;;;;;;;;;;22.30;50.60;;;;;;1536605;75;755;-57
2023/05/20 08:02:59;;;;;;;;;;;22.20;50.50;;;;;;1554192;75;757;-57
2023/05/20 08:05:01;;;;;;;;;;;22.30;50.60;;;;;;1546392;75;644;-57
2023/05/20 08:07:02;;;;;;;;;;;22.20;50.50;;;;;;1548460;75;1584;-55
2023/05/20 08:09:05;;;;;;;;;;;22.20;50.50;;;;;;1554748;75;1930;-57
2023/05/20 08:11:07;;;;;;;;;;;22.30;50.60;;;;;;1544338;75;632;-56
2023/05/20 08:13:09;;;;;;;;;;;22.30;50.60;;;;;;1545943;75;654;-55
2023/05/20 08:15:11;;;;;;;;;;;22.20;50.50;;;;;;1549115;76;752;-56
2023/05/20 08:17:13;;;;;;;;;;;22.30;50.60;;;;;;1552812;75;1098;-57
2023/05/20 08:19:15;;;;;;;;;;;22.30;50.50;;;;;;1550520;75;714;-56
2023/05/20 08:21:17;;;;;;;;;;;22.30;50.50;;;;;;1557182;75;1521;-57
2023/05/20 08:23:19;;;;;;;;;;;22.30;50.50;;;;;;1550291;75;635;-56
2023/05/20 08:25:22;;;;;;;;;;;22.40;50.50;;;;;;1558422;75;677;-56
2023/05/20 08:27:25;;;;;;;;;;;22.30;50.50;;;;;;1557951;74;1161;-55
2023/05/20 08:29:26;;;;;;;;;;;22.30;50.40;;;;;;1550551;74;1916;-56
2023/05/20 08:31:28;;;;;;;;;;;22.40;50.40;;;;;;1556744;75;670;-55
2023/05/20 08:33:30;;;;;;;;;;;22.40;50.30;;;;;;1551725;74;1458;-57
2023/05/20 08:35:32;;;;;;;;;;;22.40;50.30;;;;;;1556769;75;721;-57
2023/05/20 08:37:34;;;;;;;;;;;22.30;50.20;;;;;;1562496;74;1138;-57
2023/05/20 08:39:36;;;;;;;;;;;22.40;50.20;;;;;;1553337;75;647;-57
2023/05/20 08:41:38;;;;;;;;;;;22.40;50.20;;;;;;1559354;74;641;-56
2023/05/20 08:43:40;;;;;;;;;;;22.50;50.30;;;;;;1558646;75;950;-56
2023/05/20 08:45:42;;;;;;;;;;;22.30;50.20;;;;;;1557002;75;705;-57
2023/05/20 08:47:44;;;;;;;;;;;22.40;50.20;;;;;;1546583;75;1945;-56
2023/05/20 08:49:46;;;;;;;;;;;22.50;50.30;;;;;;1553305;75;956;-55
2023/05/20 08:51:48;;;;;;;;;;;22.40;50.20;;;;;;1546913;76;684;-58
2023/05/20 08:53:50;;;;;;;;;;;22.40;50.20;;;;;;1554852;75;665;-57
2023/05/20 08:55:59;;;;;;;;;;;22.40;50.20;;;;;;1551135;76;669;-57
2023/05/20 08:58:01;;;;;;;;;;;22.50;50.20;;;;;;1551931;75;1139;-55
2023/05/20 09:00:11;;;;;;;;;;;22.50;50.20;;;;;;1549506;75;796;-56
2023/05/20 09:02:10;;;;;;;;;;;22.50;50.20;;;;;;1551216;75;1646;-58
2023/05/20 09:04:12;;;;;;;;;;;22.50;50.20;;;;;;1546985;76;668;-58
2023/05/20 09:06:15;;;;;;;;;;;22.50;50.20;;;;;;1555982;75;1094;-57
2023/05/20 09:08:17;;;;;;;;;;;22.50;50.20;;;;;;1544375;75;1922;-56
2023/05/20 09:10:19;;;;;;;;;;;22.50;50.20;;;;;;1545492;75;812;-56
2023/05/20 09:12:21;;;;;;;;;;;22.50;50.10;;;;;;1548732;75;684;-55
2023/05/20 09:14:25;;;;;;;;;;;22.50;50.20;;;;;;1553847;75;728;-57
2023/05/20 09:16:27;;;;;;;;;;;22.50;50.10;;;;;;1544932;75;1572;-57
2023/05/20 09:18:29;;;;;;;;;;;22.50;50.10;;;;;;1555552;75;679;-57
2023/05/20 09:20:32;;;;;;;;;;;22.50;50.10;;;;;;1543498;75;684;-56
2023/05/20 09:22:34;;;;;;;;;;;22.50;50.10;;;;;;1544873;76;726;-57
2023/05/20 09:24:36;;;;;;;;;;;22.50;50.10;;;;;;1548206;75;686;-56
2023/05/20 09:26:38;;;;;;;;;;;22.50;50.10;;;;;;1553251;75;1177;-58
2023/05/20 09:28:40;;;;;;;;;;;22.50;50.10;;;;;;1556195;75;1935;-56
2023/05/20 09:30:42;;;;;;;;;;;22.50;50.10;;;;;;1551543;75;1426;-56
2023/05/20 09:32:44;;;;;;;;;;;22.50;50.10;;;;;;1547676;75;704;-56
2023/05/20 09:34:46;;;;;;;;;;;22.50;50.10;;;;;;1549905;75;629;-55
2023/05/20 09:36:49;;;;;;;;;;;22.50;50.10;;;;;;1552479;75;1115;-55
2023/05/20 09:38:56;;;;;;;;;;;22.60;50.00;;;;;;1557075;76;697;-56
2023/05/20 09:40:55;;;;;;;;;;;22.60;50.00;;;;;;1554760;75;1495;-59
2023/05/20 09:42:58;;;;;;;;;;;22.50;50.10;;;;;;1544554;75;691;-57
2023/05/20 09:45:00;;;;;;;;;;;22.50;50.10;;;;;;1554799;75;1590;-55
2023/05/20 09:47:02;;;;;;;;;;;22.50;50.00;;;;;;1559454;75;1185;-58
2023/05/20 09:49:06;;;;;;;;;;;22.60;50.00;;;;;;1563021;75;1927;-57
2023/05/20 09:51:08;;;;;;;;;;;22.50;50.00;;;;;;1565826;75;1601;-58
2023/05/20 09:53:09;;;;;;;;;;;22.60;50.00;;;;;;1560984;75;681;-56
2023/05/20 09:55:11;;;;;;;;;;;22.60;50.00;;;;;;1552848;75;792;-56
2023/05/20 09:57:13;;;;;;;;;;;22.50;50.00;;;;;;1556749;75;1127;-58
2023/05/20 09:59:16;;;;;;;;;;;22.50;50.10;;;;;;1549886;75;1457;-57
2023/05/20 10:01:18;;;;;;;;;;;22.50;50.10;;;;;;1558187;75;726;-55
2023/05/20 10:03:21;;;;;;;;;;;22.50;50.00;;;;;;1555795;75;681;-57
2023/05/20 10:05:30;;;;;;;;;;;22.50;50.10;;;;;;1566829;75;737;-55
2023/05/20 10:07:36;;;;;;;;;;;22.60;50.00;;;;;;1548306;75;1134;-56
2023/05/20 10:09:58;;;;;;;;;;;22.50;50.00;;;;;;1566319;75;1930;-57
2023/05/20 10:12:13;;;;;;;;;;;22.50;50.00;;;;;;1504629;77;1504;-57
2023/05/20 10:14:17;;;;;;;;;;;22.50;50.10;;;;;;1504004;77;1803;-55
2023/05/20 10:16:39;;;;;;;;;;;22.50;50.10;;;;;;1504275;78;1532;-54
2023/05/20 10:18:59;;;;;;;;;;;22.50;50.10;;;;;;1555383;75;725;-56
2023/05/20 10:21:01;;;;;;;;;;;22.40;50.00;;;;;;1558933;75;676;-55
2023/05/20 10:23:04;;;;;;;;;;;22.50;50.10;;;;;;1568096;75;651;-57
2023/05/20 10:25:06;;;;;;;;;;;22.50;50.10;;;;;;1553010;75;690;-56
2023/05/20 10:27:17;;;;;;;;;;;22.50;50.10;;;;;;1559411;75;1476;-58
2023/05/20 10:29:16;;;;;;;;;;;22.50;50.10;;;;;;1555805;75;1915;-57
2023/05/20 10:31:20;;;;;;;;;;;22.50;50.10;;;;;;1556540;75;674;-55
2023/05/20 10:33:22;;;;;;;;;;;22.50;50.10;;;;;;1566301;75;897;-56
2023/05/20 10:35:27;;;;;;;;;;;22.50;50.10;;;;;;1566109;75;695;-56
2023/05/20 10:37:30;;;;;;;;;;;22.50;50.10;;;;;;1551794;75;1150;-55
2023/05/20 10:39:34;;;;;;;;;;;22.60;50.10;;;;;;1558137;75;670;-57
2023/05/20 10:41:36;;;;;;;;;;;22.50;50.00;;;;;;1548005;75;1544;-57
2023/05/20 10:43:38;;;;;;;;;;;22.50;50.10;;;;;;1556004;75;694;-59
2023/05/20 10:45:53;;;;;;;;;;;22.50;50.10;;;;;;1552818;75;1141;-58
2023/05/20 10:47:56;;;;;;;;;;;22.60;50.10;;;;;;1556366;75;1118;-58
2023/05/20 10:49:58;;;;;;;;;;;22.60;50.00;;;;;;1554207;75;1932;-55
2023/05/20 10:52:00;;;;;;;;;;;22.60;50.00;;;;;;1567823;75;683;-55
2023/05/20 10:54:02;;;;;;;;;;;22.50;50.10;;;;;;1564565;74;666;-55
2023/05/20 10:56:04;;;;;;;;;;;22.60;50.10;;;;;;1559849;74;743;-57
2023/05/20 10:58:06;;;;;;;;;;;22.50;50.10;;;;;;1559518;75;1070;-57
2023/05/20 11:00:09;;;;;;;;;;;22.60;50.10;;;;;;1549071;75;639;-55
2023/05/20 11:02:12;;;;;;;;;;;22.60;50.00;;;;;;1559780;75;686;-55
2023/05/20 11:04:14;;;;;;;;;;;22.60;50.00;;;;;;1566422;75;971;-56
2023/05/20 11:06:17;;;;;;;;;;;22.50;50.10;;;;;;1557287;74;1087;-56
2023/05/20 11:08:18;;;;;;;;;;;22.60;50.00;;;;;;1559772;74;1436;-59
2023/05/20 11:10:21;;;;;;;;;;;22.50;50.10;;;;;;1556020;74;1934;-54
2023/05/20 11:12:23;;;;;;;;;;;22.60;50.10;;;;;;1565173;74;773;-57
2023/05/20 11:14:25;;;;;;;;;;;22.60;50.00;;;;;;1565266;74;702;-59
2023/05/20 11:16:26;;;;;;;;;;;22.60;50.10;;;;;;1566029;75;1130;-57
2023/05/20 11:18:31;;;;;;;;;;;22.60;50.10;;;;;;1562138;74;682;-59
2023/05/20 11:20:34;;;;;;;;;;;22.60;50.10;;;;;;1550728;75;870;-58
2023/05/20 11:22:36;;;;;;;;;;;22.60;50.10;;;;;;1563959;74;1489;-56
2023/05/20 11:24:38;;;;;;;;;;;22.60;50.00;;;;;;1559552;74;677;-57
2023/05/20 11:26:40;;;;;;;;;;;22.50;50.10;;;;;;1556545;75;1173;-57
2023/05/20 11:28:42;;;;;;;;;;;22.60;50.00;;;;;;1550972;75;1927;-57
2023/05/20 11:30:43;;;;;;;;;;;22.50;50.00;;;;;;1561377;75;691;-56
2023/05/20 11:32:50;;;;;;;;;;;22.60;50.00;;;;;;1559697;75;657;-56
2023/05/20 11:34:52;;;;;;;;;;;22.50;50.00;;;;;;1554852;75;1461;-55
2023/05/20 11:36:57;;;;;;;;;;;22.60;50.10;;;;;;1563122;75;1509;-56
2023/05/20 11:38:59;;;;;;;;;;;22.50;50.10;;;;;;1556905;74;592;-58
2023/05/20 11:41:01;;;;;;;;;;;22.60;50.00;;;;;;1554271;74;675;-57
2023/05/20 11:43:03;;;;;;;;;;;22.60;50.00;;;;;;1564299;75;637;-56
2023/05/20 11:45:05;;;;;;;;;;;22.60;50.00;;;;;;1562442;74;751;-57
2023/05/20 11:47:07;;;;;;;;;;;22.60;50.00;;;;;;1550307;75;1198;-57
2023/05/20 11:49:09;;;;;;;;;;;22.50;50.00;;;;;;1567475;74;1918;-57
2023/05/20 11:51:11;;;;;;;;;;;22.60;50.10;;;;;;1550831;75;1468;-57
2023/05/20 11:53:18;;;;;;;;;;;22.50;50.00;;;;;;1557231;75;703;-56
2023/05/20 11:55:20;;;;;;;;;;;22.50;50.10;;;;;;1558686;74;1662;-54
2023/05/20 11:57:22;;;;;;;;;;;22.50;50.10;;;;;;1565185;74;1119;-59
2023/05/20 11:59:24;;;;;;;;;;;22.50;50.00;;;;;;1557633;75;667;-56
2023/05/20 12:01:30;;;;;;;;;;;22.50;50.00;;;;;;1554918;75;1119;-57
2023/05/20 12:03:30;;;;;;;;;;;22.60;50.00;;;;;;1567592;74;1121;-57
2023/05/20 12:05:32;;;;;;;;;;;22.50;50.10;;;;;;1559893;74;1551;-57
2023/05/20 12:07:35;;;;;;;;;;;22.60;50.10;;;;;;1557341;74;1092;-55
2023/05/20 12:09:37;;;;;;;;;;;22.50;50.10;;;;;;1565395;74;1907;-57